createdAt,value
2022-07-30T00:02:10.771Z,75879.44
2022-07-30T00:06:12.327Z,75885.66
2022-07-30T00:10:14.007Z,75883.59
2022-07-30T00:14:15.732Z,75898.13
2022-07-30T00:18:18.735Z,75906.41
2022-07-30T00:22:22.701Z,75912.66
2022-07-30T00:26:25.173Z,75910.56
2022-07-30T00:30:26.872Z,75912.66
2022-07-30T00:34:29.792Z,75935.47
2022-07-30T00:38:31.605Z,75956.25
2022-07-30T00:43:01.974Z,75958.31
2022-07-30T00:47:06.640Z,75970.78
2022-07-30T00:51:12.604Z,75977.00
2022-07-30T00:55:15.350Z,75962.47
2022-07-30T00:59:17.141Z,75983.22
2022-07-30T01:03:18.794Z,75991.53
2022-07-30T01:07:21.882Z,76008.16
2022-07-30T01:11:34.100Z,76012.28
2022-07-30T01:15:36.264Z,76012.28
2022-07-30T01:19:40.475Z,76014.38
2022-07-30T01:23:46.941Z,76039.28
2022-07-30T01:27:54.609Z,76037.22
2022-07-30T01:31:57.329Z,76053.81
2022-07-30T01:36:01.124Z,76047.59
2022-07-30T01:40:04.222Z,76047.59
2022-07-30T01:44:11.927Z,76049.66
2022-07-30T01:48:15.380Z,76074.56
2022-07-30T01:52:18.535Z,76074.56
2022-07-30T01:56:24.760Z,76060.03
2022-07-30T02:00:32.848Z,76072.50
2022-07-30T02:04:34.517Z,76068.34
2022-07-30T02:08:40.453Z,76087.03
2022-07-30T02:12:48.573Z,76078.72
2022-07-30T02:16:54.604Z,76089.09
2022-07-30T02:21:00.241Z,76084.97
2022-07-30T02:25:06.082Z,76082.88
2022-07-30T02:29:11.239Z,76074.56
2022-07-30T02:33:18.987Z,76076.66
2022-07-30T02:37:43.277Z,76087.03
2022-07-30T02:41:49.634Z,76082.88
2022-07-30T02:45:51.775Z,76101.56
2022-07-30T02:49:58.421Z,76099.50
2022-07-30T02:54:01.374Z,76091.19
2022-07-30T02:58:04.495Z,76093.25
2022-07-30T03:02:08.272Z,76093.25
2022-07-30T03:06:14.568Z,76097.41
2022-07-30T03:10:17.555Z,76099.50
2022-07-30T03:14:19.353Z,76114.03
2022-07-30T03:18:23.215Z,76126.47
2022-07-30T03:22:32.567Z,76126.47
2022-07-30T03:26:36.300Z,76124.41
2022-07-30T03:30:38.490Z,76111.94
2022-07-30T03:34:41.597Z,76122.31
2022-07-30T03:38:46.292Z,76138.94
2022-07-30T03:42:49.269Z,76138.94
2022-07-30T03:46:53.058Z,76157.63
2022-07-30T03:50:55.384Z,76161.78
2022-07-30T03:54:59.100Z,76147.25
2022-07-30T03:59:01.135Z,76176.31
2022-07-30T04:03:02.862Z,76178.38
2022-07-30T04:07:04.746Z,76178.38
2022-07-30T04:11:07.855Z,76178.38
2022-07-30T04:16:36.870Z,76190.84
2022-07-30T04:19:36.440Z,76203.28
2022-07-30T04:24:03.225Z,76207.44
2022-07-30T04:28:04.054Z,76219.91
2022-07-30T04:32:08.132Z,76207.44
2022-07-30T04:36:12.849Z,76201.22
2022-07-30T04:40:18.905Z,76205.38
2022-07-30T04:44:21.934Z,76199.16
2022-07-30T04:48:23.426Z,76188.75
2022-07-30T04:52:25.350Z,76199.16
2022-07-30T04:56:29.990Z,76217.84
2022-07-30T05:00:40.479Z,76197.06
2022-07-30T05:04:43.298Z,76199.16
2022-07-30T05:08:45.534Z,76219.91
2022-07-30T05:12:46.998Z,76207.44
2022-07-30T05:16:50.310Z,76184.63
2022-07-30T05:20:51.872Z,76165.94
2022-07-30T05:24:53.421Z,76136.84
2022-07-30T05:28:57.016Z,76051.75
2022-07-30T05:33:01.420Z,76022.69
2022-07-30T05:37:05.440Z,75987.38
2022-07-30T05:41:21.913Z,75979.09
2022-07-30T05:45:32.984Z,75931.34
2022-07-30T05:49:36.086Z,75910.56
2022-07-30T05:53:37.568Z,75862.81
2022-07-30T05:57:39.214Z,75840.00
2022-07-30T06:01:41.608Z,75817.16
2022-07-30T06:05:44.595Z,75717.50
2022-07-30T06:09:46.505Z,75742.41
2022-07-30T06:13:47.978Z,75763.19
2022-07-30T06:17:58.257Z,75725.81
2022-07-30T06:22:07.262Z,75657.31
2022-07-30T06:26:08.834Z,75711.28
2022-07-30T06:30:11.558Z,75572.19
2022-07-30T06:34:13.277Z,75657.31
2022-07-30T06:38:16.263Z,75713.34
2022-07-30T06:42:18.110Z,75657.31
2022-07-30T06:46:19.667Z,75555.59
2022-07-30T06:50:21.647Z,75680.16
2022-07-30T06:54:24.640Z,75464.25
2022-07-30T06:58:26.598Z,75441.44
2022-07-30T07:02:28.321Z,75532.75
2022-07-30T07:06:29.919Z,75451.81
2022-07-30T07:10:33.239Z,75414.44
2022-07-30T07:14:34.736Z,75472.56
2022-07-30T07:18:36.688Z,75422.75
2022-07-30T07:22:38.308Z,75273.28
2022-07-30T07:26:41.348Z,75256.69
2022-07-30T07:30:43.180Z,75356.31
2022-07-30T07:34:44.864Z,75281.59
2022-07-30T07:38:46.524Z,75242.16
2022-07-30T07:42:49.327Z,75179.88
2022-07-30T07:46:50.847Z,75186.13
2022-07-30T07:50:54.150Z,75339.72
2022-07-30T07:54:58.591Z,75491.25
2022-07-30T07:59:02.085Z,75532.75
2022-07-30T08:03:05.797Z,75557.66
2022-07-30T08:07:07.349Z,75624.09
2022-07-30T08:11:08.871Z,75607.50
2022-07-30T08:15:12.132Z,75628.25
2022-07-30T08:19:14.135Z,75605.41
2022-07-30T08:23:15.812Z,75617.88
2022-07-30T08:27:17.744Z,75559.75
2022-07-30T08:31:20.598Z,75547.28
2022-07-30T08:35:22.128Z,75522.38
2022-07-30T08:39:23.750Z,75522.38
2022-07-30T08:43:25.631Z,75553.50
2022-07-30T08:47:32.137Z,75649.00
2022-07-30T08:51:35.167Z,75592.97
2022-07-30T08:55:36.783Z,75541.06
2022-07-30T08:59:52.874Z,75553.50
2022-07-30T09:04:01.861Z,75528.59
2022-07-30T09:08:08.528Z,75497.47
2022-07-30T09:12:33.243Z,75453.88
2022-07-30T09:16:35.171Z,75536.91
2022-07-30T09:20:38.388Z,75522.38
2022-07-30T09:24:42.596Z,75485.00
2022-07-30T09:28:44.104Z,75437.28
2022-07-30T09:32:50.590Z,75383.31
2022-07-30T09:36:53.477Z,75443.50
2022-07-30T09:40:57.636Z,75393.69
2022-07-30T09:45:06.014Z,75360.47
2022-07-30T09:49:14.308Z,75345.94
2022-07-30T09:53:17.525Z,75343.88
2022-07-30T09:57:25.787Z,75360.47
2022-07-30T10:01:56.307Z,75302.34
2022-07-30T10:06:02.973Z,75267.06
2022-07-30T10:10:07.897Z,75181.97
2022-07-30T10:14:10.542Z,75233.84
2022-07-30T10:18:12.663Z,75294.06
2022-07-30T10:22:18.010Z,75152.91
2022-07-30T10:26:22.319Z,75181.97
2022-07-30T10:30:27.698Z,75157.06
2022-07-30T10:34:34.218Z,75219.31
2022-07-30T10:38:41.270Z,75107.25
2022-07-30T10:43:01.934Z,75061.59
2022-07-30T10:47:08.268Z,75130.06
2022-07-30T10:51:12.178Z,75069.88
2022-07-30T10:55:38.718Z,75040.81
2022-07-30T11:00:15.323Z,74999.31
2022-07-30T11:04:20.395Z,74947.44
2022-07-30T11:08:36.850Z,74997.25
2022-07-30T11:12:55.465Z,74810.44
2022-07-30T11:17:01.254Z,74785.53
2022-07-30T11:21:20.651Z,74814.59
2022-07-30T11:25:51.124Z,74858.19
2022-07-30T11:29:53.938Z,74773.09
2022-07-30T11:34:26.638Z,74768.94
2022-07-30T11:38:53.475Z,74748.19
2022-07-30T11:43:15.657Z,74654.78
2022-07-30T11:47:18.345Z,74623.66
2022-07-30T11:51:20.591Z,74584.22
2022-07-30T11:55:27.377Z,74559.31
2022-07-30T11:59:28.995Z,74694.22
2022-07-30T12:03:31.600Z,74667.25
2022-07-30T12:07:33.106Z,74571.78
2022-07-30T12:11:36.046Z,74617.44
2022-07-30T12:15:39.281Z,74551.03
2022-07-30T12:19:48.090Z,74387.09
2022-07-30T12:23:57.309Z,74270.88
2022-07-30T12:28:00.311Z,74428.59
2022-07-30T12:32:02.205Z,74401.59
2022-07-30T12:36:04.206Z,74528.19
2022-07-30T12:40:14.362Z,74476.31
2022-07-30T12:44:37.014Z,74364.25
2022-07-30T12:48:56.158Z,74302.00
2022-07-30T12:52:57.930Z,74235.59
2022-07-30T12:57:02.204Z,74206.53
2022-07-30T13:01:07.418Z,74239.75
2022-07-30T13:05:11.387Z,74106.94
2022-07-30T13:09:18.870Z,74088.25
2022-07-30T13:13:20.511Z,74102.78
2022-07-30T13:17:23.385Z,74175.41
2022-07-30T13:21:25.046Z,74030.16
2022-07-30T13:25:26.690Z,74181.63
2022-07-30T13:29:41.942Z,74028.09
2022-07-30T13:33:44.932Z,74235.59
2022-07-30T13:37:46.397Z,74468.00
2022-07-30T13:41:48.481Z,65880.28
2022-07-30T13:45:50.954Z,65880.28
2022-07-30T13:49:53.871Z,65880.28
2022-07-30T13:53:55.466Z,65880.28
2022-07-30T13:57:57.262Z,65880.28
2022-07-30T14:02:00.661Z,65880.28
2022-07-30T14:06:11.027Z,65880.28
2022-07-30T14:10:12.913Z,65880.28
2022-07-30T14:14:14.353Z,65880.28
2022-07-30T14:18:15.957Z,65880.28
2022-07-30T14:22:18.909Z,65880.28
2022-07-30T14:26:20.381Z,65880.28
2022-07-30T14:30:21.893Z,65880.28
2022-07-30T14:34:23.709Z,65880.28
2022-07-30T14:38:26.712Z,65880.28
2022-07-30T14:42:28.217Z,65880.28
2022-07-30T14:46:29.650Z,65880.28
2022-07-30T14:50:31.294Z,65880.28
2022-07-30T14:54:34.337Z,65880.28
2022-07-30T14:58:36.007Z,65880.28
2022-07-30T15:02:37.497Z,65880.28
2022-07-30T15:06:39.113Z,65880.28
2022-07-30T15:10:42.161Z,65880.28
2022-07-30T15:14:45.480Z,65880.28
2022-07-30T15:18:47.462Z,65880.28
2022-07-30T15:22:49.153Z,65880.28
2022-07-30T15:26:52.012Z,65880.28
2022-07-30T15:30:53.765Z,65880.28
2022-07-30T15:34:55.296Z,65880.28
2022-07-30T15:38:56.914Z,65880.28
2022-07-30T15:42:59.758Z,65880.28
2022-07-30T15:47:01.778Z,65880.28
2022-07-30T15:51:04.986Z,65880.28
2022-07-30T15:55:07.543Z,65880.28
2022-07-30T15:59:10.446Z,65880.28
2022-07-30T16:03:12.864Z,65880.28
2022-07-30T16:07:14.532Z,65880.28
2022-07-30T16:11:16.173Z,65880.28
2022-07-30T16:15:19.002Z,65880.28
2022-07-30T16:19:20.560Z,65880.28
2022-07-30T16:23:22.079Z,65880.28
2022-07-30T16:27:23.744Z,65880.28
2022-07-30T16:31:26.834Z,65880.28
2022-07-30T16:35:28.306Z,65880.28
2022-07-30T16:39:29.774Z,65880.28
2022-07-30T16:43:31.626Z,65880.28
2022-07-30T16:47:34.481Z,65880.28
2022-07-30T16:51:36.288Z,65880.28
2022-07-30T16:55:39.161Z,65880.28
2022-07-30T16:59:43.555Z,65880.28
2022-07-30T17:03:46.819Z,65880.28
2022-07-30T17:07:48.360Z,65880.28
2022-07-30T17:11:52.213Z,65880.28
2022-07-30T17:15:54.117Z,65880.28
2022-07-30T17:19:57.127Z,65880.28
2022-07-30T17:23:58.866Z,65880.28
2022-07-30T17:28:00.783Z,65880.28
2022-07-30T17:32:03.188Z,65880.28
2022-07-30T17:36:06.502Z,65880.28
2022-07-30T17:40:30.225Z,65880.28
2022-07-30T17:44:31.323Z,65880.28
2022-07-30T17:48:33.269Z,65880.28
2022-07-30T17:52:36.285Z,65880.28
2022-07-30T17:56:38.059Z,65880.28
2022-07-30T18:00:40.014Z,65880.28
2022-07-30T18:04:41.607Z,65880.28
2022-07-30T18:08:44.707Z,65880.28
2022-07-30T18:12:48.861Z,65880.28
2022-07-30T18:16:51.652Z,65880.28
2022-07-30T18:20:53.168Z,65880.28
2022-07-30T18:24:56.065Z,65880.28
2022-07-30T18:28:57.577Z,65880.28
2022-07-30T18:32:59.713Z,65880.28
2022-07-30T18:37:01.253Z,65880.28
2022-07-30T18:41:04.460Z,65880.28
2022-07-30T18:45:07.010Z,65880.28
2022-07-30T18:49:33.841Z,65880.28
2022-07-30T18:53:30.078Z,65880.28
2022-07-30T18:57:33.035Z,65880.28
2022-07-30T19:01:34.567Z,65880.28
2022-07-30T19:05:36.177Z,65880.28
2022-07-30T19:09:37.933Z,65880.28
2022-07-30T19:13:40.956Z,65880.28
2022-07-30T19:17:45.603Z,65880.28
2022-07-30T19:21:48.637Z,65880.28
2022-07-30T19:25:50.330Z,65880.28
2022-07-30T19:29:53.325Z,65880.28
2022-07-30T19:33:54.817Z,65880.28
2022-07-30T19:37:56.964Z,65880.28
2022-07-30T19:41:58.425Z,65880.28
2022-07-30T19:46:01.313Z,65880.28
2022-07-30T19:50:02.888Z,65880.28
2022-07-30T19:54:04.575Z,65880.28
2022-07-30T19:58:16.414Z,65880.28
2022-07-30T20:02:30.589Z,65880.28
2022-07-30T20:06:32.305Z,65880.28
2022-07-30T20:10:34.998Z,65880.28
2022-07-30T20:14:36.628Z,65880.28
2022-07-30T20:18:46.582Z,65880.28
2022-07-30T20:22:49.791Z,65880.28
2022-07-30T20:26:51.304Z,65880.28
2022-07-30T20:30:53.013Z,65880.28
2022-07-30T20:34:55.904Z,65880.28
2022-07-30T20:38:57.452Z,65880.28
2022-07-30T20:43:00.020Z,65880.28
2022-07-30T20:47:08.388Z,65880.28
2022-07-30T20:51:11.780Z,65880.28
2022-07-30T20:55:14.546Z,65880.28
2022-07-30T20:59:18.012Z,65880.28
2022-07-30T21:03:23.411Z,65880.28
2022-07-30T21:07:36.792Z,65880.28
2022-07-30T21:11:39.436Z,65880.28
2022-07-30T21:16:01.944Z,65880.28
2022-07-30T21:20:05.720Z,65880.28
2022-07-30T21:24:12.015Z,65880.28
2022-07-30T21:32:35.050Z,65880.28
2022-07-30T21:36:37.215Z,65880.28
2022-07-30T21:40:41.019Z,65880.28
2022-07-30T21:44:42.546Z,65880.28
2022-07-30T21:48:44.998Z,65880.28
2022-07-30T21:52:46.791Z,65880.28
2022-07-30T21:56:49.574Z,65880.28
2022-07-30T22:01:04.177Z,65880.28
2022-07-30T22:05:19.242Z,65880.28
2022-07-30T22:09:33.393Z,65880.28
2022-07-30T22:13:53.473Z,65880.28
2022-07-30T22:17:58.847Z,65880.28
2022-07-30T22:22:25.944Z,65880.28
2022-07-30T22:26:26.486Z,65880.28
2022-07-30T22:30:31.029Z,65880.28
2022-07-30T22:34:32.743Z,65880.28
2022-07-30T22:38:34.413Z,65880.28
2022-07-30T22:42:49.583Z,65880.28
2022-07-30T22:46:56.511Z,65880.28
2022-07-30T22:50:58.768Z,65880.28
2022-07-30T22:55:09.105Z,65880.28
2022-07-30T22:59:12.474Z,65880.28
2022-07-30T23:03:17.569Z,65880.28
2022-07-30T23:07:19.978Z,65880.28
2022-07-30T23:11:21.405Z,65880.28
2022-07-30T23:12:27.316Z,65880.28
2022-07-30T23:15:23.816Z,65880.28
2022-07-30T23:19:26.628Z,65880.28
2022-07-30T23:23:28.248Z,65880.28
2022-07-30T23:27:32.709Z,65880.28
2022-07-30T23:31:34.625Z,65880.28
2022-07-30T23:35:37.464Z,65880.28
2022-07-30T23:39:38.961Z,65880.28
2022-07-30T23:43:40.503Z,65880.28
2022-07-30T23:48:02.106Z,65880.28
2022-07-30T23:52:05.579Z,65880.28
2022-07-30T23:56:13.140Z,65880.28
